Terminal Aerodrome Forecast
Issued by NWS Jackson, KY

Home | Current Version | Previous Version | Text Only | Print | Product List | Glossary On
Versions: 1 2 3 4 5 6 7 8 9 10 11 12 13 14 15 16 17 18 19
000
FTUS43 KJKL 031739
TAFJKL
TAF
KJKL 031739Z 0318/0418 VRB05KT P6SM OVC010
     FM032000 20006KT P6SM VCTS FEW005 OVC010CB
     FM040000 22007KT 4SM SHRA VCTS OVC005CB
     FM040300 21008KT 1SM +RA OVC003=

USA.gov is the U.S. government's official web portal to all federal, state and local government web resources and services.